Time,TemperatureF,DewpointF,PressureIn,WindDirection,WindDirectionDegrees,WindSpeedMPH,WindSpeedGustMPH,Humidity,HourlyPrecipIn,Conditions,Clouds,dailyrainin,SoftwareType,DateUTC
2013-05-05 00:10:00,41.6,39.0,30.33,East,96,0.0,1.0,90,0.00,,,0.00,weatherlink.com 1.10,2013-05-05 04:10:00,
2013-05-05 00:25:00,41.5,39.0,30.33,East,96,0.0,1.0,90,0.00,,,0.00,weatherlink.com 1.10,2013-05-05 04:25:00,
2013-05-05 00:40:00,41.4,39.0,30.33,East,96,0.0,0.0,91,0.00,,,0.00,weatherlink.com 1.10,2013-05-05 04:40:00,
2013-05-05 00:55:00,41.4,39.0,30.33,East,96,0.0,0.0,91,0.00,,,0.00,weatherlink.com 1.10,2013-05-05 04:55:00,
2013-05-05 01:10:00,41.6,39.0,30.32,East,96,1.0,1.0,91,0.00,,,0.00,weatherlink.com 1.10,2013-05-05 05:10:00,
2013-05-05 01:25:00,41.4,39.0,30.32,North,354,0.0,0.0,91,0.00,,,0.00,weatherlink.com 1.10,2013-05-05 05:25:00,
2013-05-05 01:40:00,41.3,39.0,30.32,North,354,0.0,1.0,92,0.00,,,0.00,weatherlink.com 1.10,2013-05-05 05:40:00,
2013-05-05 01:55:00,41.2,39.0,30.31,North,355,0.0,1.0,92,0.00,,,0.00,weatherlink.com 1.10,2013-05-05 05:55:00,
2013-05-05 02:10:00,41.1,39.0,30.31,North,1,0.0,1.0,92,0.00,,,0.00,weatherlink.com 1.10,2013-05-05 06:10:00,
2013-05-05 02:25:00,40.6,39.0,30.31,North,1,0.0,0.0,92,0.00,,,0.00,weatherlink.com 1.10,2013-05-05 06:25:00,
2013-05-05 02:40:00,40.2,38.0,30.31,North,1,0.0,1.0,92,0.00,,,0.00,weatherlink.com 1.10,2013-05-05 06:40:00,
2013-05-05 02:55:00,40.5,39.0,30.31,North,1,0.0,1.0,93,0.00,,,0.00,weatherlink.com 1.10,2013-05-05 06:55:00,
2013-05-05 03:10:00,40.6,39.0,30.31,North,11,0.0,1.0,93,0.00,,,0.00,weatherlink.com 1.10,2013-05-05 07:10:00,
2013-05-05 03:25:00,40.6,39.0,30.31,North,7,1.0,1.0,92,0.00,,,0.00,weatherlink.com 1.10,2013-05-05 07:25:00,
2013-05-05 03:40:00,40.6,39.0,30.31,NNE,29,1.0,3.0,92,0.00,,,0.00,weatherlink.com 1.10,2013-05-05 07:40:00,
2013-05-05 03:55:00,40.6,38.0,30.31,North,356,0.0,1.0,91,0.00,,,0.00,weatherlink.com 1.10,2013-05-05 07:55:00,
2013-05-05 04:10:00,40.4,38.0,30.30,NE,53,1.0,1.0,92,0.00,,,0.00,weatherlink.com 1.10,2013-05-05 08:10:00,
2013-05-05 04:25:00,40.4,38.0,30.30,NNE,16,0.0,2.0,92,0.00,,,0.00,weatherlink.com 1.10,2013-05-05 08:25:00,
2013-05-05 04:40:00,40.3,38.0,30.30,NE,41,0.0,2.0,92,0.00,,,0.00,weatherlink.com 1.10,2013-05-05 08:40:00,
2013-05-05 04:55:00,39.8,38.0,30.30,NE,41,0.0,1.0,92,0.00,,,0.00,weatherlink.com 1.10,2013-05-05 08:55:00,
2013-05-05 05:10:00,39.3,37.0,30.30,NNE,20,0.0,1.0,92,0.00,,,0.00,weatherlink.com 1.10,2013-05-05 09:10:00,
2013-05-05 05:25:00,38.5,37.0,30.31,ENE,60,0.0,1.0,93,0.00,,,0.00,weatherlink.com 1.10,2013-05-05 09:25:00,
2013-05-05 05:40:00,38.0,36.0,30.31,ENE,60,0.0,0.0,93,0.00,,,0.00,weatherlink.com 1.10,2013-05-05 09:40:00,
2013-05-05 05:55:00,37.8,36.0,30.31,ENE,60,0.0,1.0,94,0.00,,,0.00,weatherlink.com 1.10,2013-05-05 09:55:00,
2013-05-05 06:10:00,37.8,36.0,30.32,ENE,70,0.0,1.0,94,0.00,,,0.00,weatherlink.com 1.10,2013-05-05 10:10:00,
2013-05-05 06:25:00,38.1,37.0,30.32,East,96,0.0,1.0,95,0.00,,,0.00,weatherlink.com 1.10,2013-05-05 10:25:00,
2013-05-05 06:40:00,38.8,38.0,30.32,East,96,0.0,1.0,95,0.00,,,0.00,weatherlink.com 1.10,2013-05-05 10:40:00,
2013-05-05 06:55:00,40.8,40.0,30.32,NW,319,1.0,2.0,95,0.00,,,0.00,weatherlink.com 1.10,2013-05-05 10:55:00,
2013-05-05 07:10:00,42.7,41.0,30.32,East,100,0.0,2.0,92,0.00,,,0.00,weatherlink.com 1.10,2013-05-05 11:10:00,
2013-05-05 07:25:00,44.1,41.0,30.32,NNE,30,1.0,2.0,88,0.00,,,0.00,weatherlink.com 1.10,2013-05-05 11:25:00,
2013-05-05 07:40:00,45.4,41.0,30.32,NE,37,0.0,2.0,84,0.00,,,0.00,weatherlink.com 1.10,2013-05-05 11:40:00,
2013-05-05 07:56:00,46.7,41.0,30.33,North,360,1.0,4.0,80,0.00,,,0.00,weatherlink.com 1.10,2013-05-05 11:56:00,
2013-05-05 08:11:00,47.6,42.0,30.33,WNW,295,0.0,4.0,80,0.00,,,0.00,weatherlink.com 1.10,2013-05-05 12:11:00,
2013-05-05 08:26:00,49.3,42.0,30.33,ESE,121,0.0,5.0,75,0.00,,,0.00,weatherlink.com 1.10,2013-05-05 12:26:00,
2013-05-05 08:41:00,50.5,42.0,30.33,ENE,57,2.0,3.0,73,0.00,,,0.00,weatherlink.com 1.10,2013-05-05 12:41:00,
2013-05-05 08:56:00,51.9,42.0,30.33,NW,316,2.0,3.0,68,0.00,,,0.00,weatherlink.com 1.10,2013-05-05 12:56:00,
2013-05-05 09:11:00,51.6,42.0,30.32,ENE,63,1.0,4.0,69,0.00,,,0.00,weatherlink.com 1.10,2013-05-05 13:11:00,
2013-05-05 09:26:00,53.4,42.0,30.32,ESE,119,1.0,3.0,66,0.00,,,0.00,weatherlink.com 1.10,2013-05-05 13:26:00,
2013-05-05 09:41:00,54.5,42.0,30.32,SE,136,2.0,5.0,64,0.00,,,0.00,weatherlink.com 1.10,2013-05-05 13:41:00,
2013-05-05 09:56:00,55.2,41.0,30.32,SSE,155,2.0,6.0,59,0.00,,,0.00,weatherlink.com 1.10,2013-05-05 13:56:00,
2013-05-05 10:11:00,56.2,41.0,30.32,SSW,208,1.0,8.0,57,0.00,,,0.00,weatherlink.com 1.10,2013-05-05 14:11:00,
2013-05-05 10:26:00,56.0,39.0,30.32,NNE,20,4.0,7.0,54,0.00,,,0.00,weatherlink.com 1.10,2013-05-05 14:26:00,
2013-05-05 10:41:00,56.9,40.0,30.32,East,99,3.0,8.0,54,0.00,,,0.00,weatherlink.com 1.10,2013-05-05 14:41:00,
2013-05-05 10:56:00,56.6,40.0,30.32,ENE,74,1.0,9.0,54,0.00,,,0.00,weatherlink.com 1.10,2013-05-05 14:56:00,
2013-05-05 11:11:00,57.8,40.0,30.32,ENE,70,3.0,5.0,52,0.00,,,0.00,weatherlink.com 1.10,2013-05-05 15:11:00,
2013-05-05 11:26:00,57.5,39.0,30.32,SSW,197,3.0,9.0,51,0.00,,,0.00,weatherlink.com 1.10,2013-05-05 15:26:00,
2013-05-05 11:41:00,57.1,39.0,30.31,South,173,3.0,6.0,51,0.00,,,0.00,weatherlink.com 1.10,2013-05-05 15:41:00,
2013-05-05 11:56:00,56.5,38.0,30.31,SE,144,2.0,9.0,51,0.00,,,0.00,weatherlink.com 1.10,2013-05-05 15:56:00,
2013-05-05 12:11:00,56.4,39.0,30.31,SE,146,0.0,7.0,53,0.00,,,0.00,weatherlink.com 1.10,2013-05-05 16:11:00,
2013-05-05 12:26:00,55.7,38.0,30.31,South,172,3.0,7.0,52,0.00,,,0.00,weatherlink.com 1.10,2013-05-05 16:26:00,
2013-05-05 12:41:00,55.9,39.0,30.31,ESE,118,5.0,7.0,53,0.00,,,0.00,weatherlink.com 1.10,2013-05-05 16:41:00,
2013-05-05 12:56:00,56.5,39.0,30.31,NE,44,2.0,6.0,53,0.00,,,0.00,weatherlink.com 1.10,2013-05-05 16:56:00,
2013-05-05 13:11:00,57.3,39.0,30.30,SE,129,0.0,8.0,50,0.00,,,0.00,weatherlink.com 1.10,2013-05-05 17:11:00,
2013-05-05 13:26:00,58.5,40.0,30.30,SE,143,5.0,6.0,50,0.00,,,0.00,weatherlink.com 1.10,2013-05-05 17:26:00,
2013-05-05 13:41:00,58.5,39.0,30.30,NW,305,1.0,5.0,49,0.00,,,0.00,weatherlink.com 1.10,2013-05-05 17:41:00,
2013-05-05 13:56:00,58.3,38.0,30.30,ENE,75,3.0,7.0,48,0.00,,,0.00,weatherlink.com 1.10,2013-05-05 17:56:00,
2013-05-05 14:11:00,58.3,40.0,30.30,ESE,121,2.0,8.0,50,0.00,,,0.00,weatherlink.com 1.10,2013-05-05 18:11:00,
2013-05-05 14:26:00,58.9,40.0,30.30,South,178,3.0,8.0,49,0.00,,,0.00,weatherlink.com 1.10,2013-05-05 18:26:00,
2013-05-05 14:41:00,58.8,39.0,30.30,South,179,2.0,5.0,49,0.00,,,0.00,weatherlink.com 1.10,2013-05-05 18:41:00,
2013-05-05 14:56:00,58.0,40.0,30.29,East,95,6.0,11.0,51,0.00,,,0.00,weatherlink.com 1.10,2013-05-05 18:56:00,
2013-05-05 15:11:00,57.7,39.0,30.28,South,174,3.0,10.0,50,0.00,,,0.00,weatherlink.com 1.10,2013-05-05 19:11:00,
2013-05-05 15:26:00,58.0,39.0,30.28,ESE,108,4.0,11.0,49,0.00,,,0.00,weatherlink.com 1.10,2013-05-05 19:26:00,
2013-05-05 15:41:00,57.8,39.0,30.28,West,280,2.0,7.0,50,0.00,,,0.00,weatherlink.com 1.10,2013-05-05 19:41:00,
2013-05-05 15:56:00,58.8,39.0,30.28,ENE,74,5.0,7.0,49,0.00,,,0.00,weatherlink.com 1.10,2013-05-05 19:56:00,
2013-05-05 16:11:00,58.6,40.0,30.27,NNE,29,3.0,7.0,51,0.00,,,0.00,weatherlink.com 1.10,2013-05-05 20:11:00,
2013-05-05 16:26:00,58.2,40.0,30.27,ENE,75,0.0,7.0,51,0.00,,,0.00,weatherlink.com 1.10,2013-05-05 20:26:00,
2013-05-05 16:41:00,57.6,39.0,30.27,ENE,68,3.0,7.0,51,0.00,,,0.00,weatherlink.com 1.10,2013-05-05 20:41:00,
2013-05-05 16:56:00,57.4,39.0,30.26,SE,124,5.0,6.0,51,0.00,,,0.00,weatherlink.com 1.10,2013-05-05 20:56:00,
2013-05-05 17:11:00,57.5,39.0,30.27,East,82,4.0,7.0,51,0.00,,,0.00,weatherlink.com 1.10,2013-05-05 21:11:00,
2013-05-05 17:26:00,57.1,39.0,30.27,NNE,13,1.0,8.0,52,0.00,,,0.00,weatherlink.com 1.10,2013-05-05 21:26:00,
2013-05-05 17:41:00,56.1,39.0,30.26,SE,124,2.0,8.0,54,0.00,,,0.00,weatherlink.com 1.10,2013-05-05 21:41:00,
2013-05-05 17:57:00,55.4,40.0,30.26,SE,124,2.0,6.0,57,0.00,,,0.00,weatherlink.com 1.10,2013-05-05 21:57:00,
2013-05-05 18:12:00,54.3,40.0,30.26,ENE,57,3.0,9.0,60,0.00,,,0.00,weatherlink.com 1.10,2013-05-05 22:12:00,
2013-05-05 18:27:00,53.5,39.0,30.26,SE,139,2.0,7.0,59,0.00,,,0.00,weatherlink.com 1.10,2013-05-05 22:27:00,
2013-05-05 18:42:00,52.5,39.0,30.26,East,97,3.0,5.0,60,0.00,,,0.00,weatherlink.com 1.10,2013-05-05 22:42:00,
2013-05-05 18:57:00,52.2,39.0,30.26,East,85,0.0,5.0,61,0.00,,,0.00,weatherlink.com 1.10,2013-05-05 22:57:00,
2013-05-05 19:12:00,51.6,40.0,30.26,ESE,121,3.0,3.0,64,0.00,,,0.00,weatherlink.com 1.10,2013-05-05 23:12:00,
2013-05-05 19:27:00,50.7,40.0,30.27,South,183,0.0,3.0,67,0.00,,,0.00,weatherlink.com 1.10,2013-05-05 23:27:00,
2013-05-05 19:42:00,50.1,40.0,30.27,ESE,103,0.0,4.0,69,0.00,,,0.00,weatherlink.com 1.10,2013-05-05 23:42:00,
2013-05-05 19:57:00,49.4,40.0,30.26,East,101,0.0,2.0,71,0.00,,,0.00,weatherlink.com 1.10,2013-05-05 23:57:00,
2013-05-05 20:12:00,48.8,41.0,30.27,SSE,157,0.0,1.0,74,0.00,,,0.00,weatherlink.com 1.10,2013-05-06 00:12:00,
2013-05-05 20:27:00,48.4,42.0,30.27,East,92,0.0,3.0,77,0.00,,,0.00,weatherlink.com 1.10,2013-05-06 00:27:00,
2013-05-05 20:42:00,48.1,42.0,30.27,ESE,109,0.0,1.0,79,0.00,,,0.00,weatherlink.com 1.10,2013-05-06 00:42:00,
2013-05-05 20:57:00,47.7,42.0,30.27,ESE,114,0.0,1.0,80,0.00,,,0.00,weatherlink.com 1.10,2013-05-06 00:57:00,
2013-05-05 21:12:00,47.9,42.0,30.28,SE,135,0.0,1.0,80,0.00,,,0.00,weatherlink.com 1.10,2013-05-06 01:12:00,
2013-05-05 21:27:00,47.7,42.0,30.28,SE,136,0.0,1.0,81,0.00,,,0.00,weatherlink.com 1.10,2013-05-06 01:27:00,
2013-05-05 21:42:00,47.4,42.0,30.28,SE,124,0.0,1.0,82,0.00,,,0.00,weatherlink.com 1.10,2013-05-06 01:42:00,
2013-05-05 21:57:00,47.1,42.0,30.28,ESE,122,0.0,1.0,83,0.00,,,0.00,weatherlink.com 1.10,2013-05-06 01:57:00,
2013-05-05 22:12:00,46.8,42.0,30.28,East,87,0.0,2.0,84,0.00,,,0.00,weatherlink.com 1.10,2013-05-06 02:12:00,
2013-05-05 22:27:00,47.0,42.0,30.27,East,101,0.0,2.0,84,0.00,,,0.00,weatherlink.com 1.10,2013-05-06 02:27:00,
2013-05-05 22:42:00,46.4,42.0,30.27,East,101,0.0,0.0,85,0.00,,,0.00,weatherlink.com 1.10,2013-05-06 02:42:00,
2013-05-05 22:57:00,45.7,42.0,30.27,East,101,0.0,0.0,86,0.00,,,0.00,weatherlink.com 1.10,2013-05-06 02:57:00,
2013-05-05 23:12:00,45.3,42.0,30.27,South,181,0.0,1.0,87,0.00,,,0.00,weatherlink.com 1.10,2013-05-06 03:12:00,
2013-05-05 23:27:00,45.2,42.0,30.27,South,177,0.0,2.0,88,0.00,,,0.00,weatherlink.com 1.10,2013-05-06 03:27:00,
2013-05-05 23:42:00,45.1,42.0,30.27,SE,135,0.0,2.0,88,0.00,,,0.00,weatherlink.com 1.10,2013-05-06 03:42:00,
2013-05-05 23:57:00,44.7,42.0,30.27,SE,135,0.0,1.0,89,0.00,,,0.00,weatherlink.com 1.10,2013-05-06 03:57:00,